sensor_id;sensor_type;location;lat;lon;timestamp;P1;durP1;ratioP1;P2;durP2;ratioP2
1715;SDS011;855;48.824;9.220;2023-03-16T00:02:00;12.50;;;5.43;;
1715;SDS011;855;48.824;9.220;2023-03-16T00:04:27;17.10;;;4.70;;
1715;SDS011;855;48.824;9.220;2023-03-16T00:06:54;12.57;;;5.50;;
1715;SDS011;855;48.824;9.220;2023-03-16T00:09:21;9.73;;;4.67;;
1715;SDS011;855;48.824;9.220;2023-03-16T00:11:54;11.07;;;5.30;;
1715;SDS011;855;48.824;9.220;2023-03-16T00:14:23;9.23;;;5.53;;
1715;SDS011;855;48.824;9.220;2023-03-16T00:16:50;13.87;;;5.63;;
1715;SDS011;855;48.824;9.220;2023-03-16T00:19:17;9.90;;;5.53;;
1715;SDS011;855;48.824;9.220;2023-03-16T00:21:46;10.83;;;5.33;;
1715;SDS011;855;48.824;9.220;2023-03-16T00:24:13;11.70;;;5.70;;
1715;SDS011;855;48.824;9.220;2023-03-16T00:26:42;7.37;;;4.60;;
1715;SDS011;855;48.824;9.220;2023-03-16T00:29:09;10.97;;;5.37;;
1715;SDS011;855;48.824;9.220;2023-03-16T00:31:38;6.37;;;3.80;;
1715;SDS011;855;48.824;9.220;2023-03-16T00:34:07;16.97;;;5.50;;
1715;SDS011;855;48.824;9.220;2023-03-16T00:36:34;7.37;;;5.70;;
1715;SDS011;855;48.824;9.220;2023-03-16T00:39:02;11.50;;;5.43;;
1715;SDS011;855;48.824;9.220;2023-03-16T00:41:30;15.43;;;5.20;;
1715;SDS011;855;48.824;9.220;2023-03-16T00:44:01;11.30;;;5.50;;
1715;SDS011;855;48.824;9.220;2023-03-16T00:46:28;11.33;;;5.50;;
1715;SDS011;855;48.824;9.220;2023-03-16T00:48:56;9.83;;;5.93;;
1715;SDS011;855;48.824;9.220;2023-03-16T00:51:23;11.80;;;4.87;;
1715;SDS011;855;48.824;9.220;2023-03-16T00:53:50;8.37;;;4.67;;
1715;SDS011;855;48.824;9.220;2023-03-16T00:56:17;16.30;;;7.73;;
1715;SDS011;855;48.824;9.220;2023-03-16T00:58:44;11.13;;;4.33;;
1715;SDS011;855;48.824;9.220;2023-03-16T01:01:11;9.00;;;4.73;;
1715;SDS011;855;48.824;9.220;2023-03-16T01:03:40;11.07;;;5.67;;
1715;SDS011;855;48.824;9.220;2023-03-16T01:06:09;8.10;;;4.60;;
1715;SDS011;855;48.824;9.220;2023-03-16T01:08:38;7.97;;;5.20;;
1715;SDS011;855;48.824;9.220;2023-03-16T01:11:06;10.10;;;4.70;;
1715;SDS011;855;48.824;9.220;2023-03-16T01:13:35;7.87;;;5.40;;
1715;SDS011;855;48.824;9.220;2023-03-16T01:16:02;15.73;;;5.30;;
1715;SDS011;855;48.824;9.220;2023-03-16T01:18:30;7.73;;;5.27;;
1715;SDS011;855;48.824;9.220;2023-03-16T01:20:58;11.03;;;5.03;;
1715;SDS011;855;48.824;9.220;2023-03-16T01:23:27;10.00;;;5.03;;
1715;SDS011;855;48.824;9.220;2023-03-16T01:25:55;20.33;;;6.03;;
1715;SDS011;855;48.824;9.220;2023-03-16T01:28:23;7.77;;;4.60;;
1715;SDS011;855;48.824;9.220;2023-03-16T01:30:52;10.90;;;6.20;;
1715;SDS011;855;48.824;9.220;2023-03-16T01:33:22;10.23;;;4.70;;
1715;SDS011;855;48.824;9.220;2023-03-16T01:35:51;13.17;;;6.73;;
1715;SDS011;855;48.824;9.220;2023-03-16T01:38:19;11.80;;;5.30;;
1715;SDS011;855;48.824;9.220;2023-03-16T01:40:47;12.10;;;5.17;;
1715;SDS011;855;48.824;9.220;2023-03-16T01:43:16;14.00;;;5.60;;
1715;SDS011;855;48.824;9.220;2023-03-16T01:48:44;14.70;;;6.03;;
1715;SDS011;855;48.824;9.220;2023-03-16T01:51:17;11.50;;;5.57;;
1715;SDS011;855;48.824;9.220;2023-03-16T01:53:49;12.37;;;6.33;;
1715;SDS011;855;48.824;9.220;2023-03-16T01:56:20;16.10;;;5.47;;
1715;SDS011;855;48.824;9.220;2023-03-16T01:58:51;10.67;;;5.90;;
1715;SDS011;855;48.824;9.220;2023-03-16T02:01:22;10.43;;;5.77;;
1715;SDS011;855;48.824;9.220;2023-03-16T02:03:52;9.33;;;4.77;;
1715;SDS011;855;48.824;9.220;2023-03-16T02:06:22;8.27;;;5.50;;
1715;SDS011;855;48.824;9.220;2023-03-16T02:08:49;8.27;;;4.80;;
1715;SDS011;855;48.824;9.220;2023-03-16T02:11:20;12.40;;;5.57;;
1715;SDS011;855;48.824;9.220;2023-03-16T02:13:48;13.90;;;6.93;;
1715;SDS011;855;48.824;9.220;2023-03-16T02:16:16;11.80;;;5.90;;
1715;SDS011;855;48.824;9.220;2023-03-16T02:18:46;12.70;;;5.80;;
1715;SDS011;855;48.824;9.220;2023-03-16T02:21:16;13.77;;;6.03;;
1715;SDS011;855;48.824;9.220;2023-03-16T02:23:49;11.40;;;5.87;;
1715;SDS011;855;48.824;9.220;2023-03-16T02:26:19;13.07;;;6.00;;
1715;SDS011;855;48.824;9.220;2023-03-16T02:28:57;10.17;;;4.93;;
1715;SDS011;855;48.824;9.220;2023-03-16T02:31:36;11.03;;;6.00;;
1715;SDS011;855;48.824;9.220;2023-03-16T02:34:03;10.63;;;5.23;;
1715;SDS011;855;48.824;9.220;2023-03-16T02:36:30;11.07;;;7.80;;
1715;SDS011;855;48.824;9.220;2023-03-16T02:38:58;16.07;;;6.10;;
1715;SDS011;855;48.824;9.220;2023-03-16T02:41:25;11.90;;;6.80;;
1715;SDS011;855;48.824;9.220;2023-03-16T02:43:53;18.03;;;6.17;;
1715;SDS011;855;48.824;9.220;2023-03-16T02:46:25;11.77;;;5.77;;
1715;SDS011;855;48.824;9.220;2023-03-16T02:48:57;12.17;;;5.90;;
1715;SDS011;855;48.824;9.220;2023-03-16T02:51:28;10.10;;;5.33;;
1715;SDS011;855;48.824;9.220;2023-03-16T02:53:56;13.23;;;5.73;;
1715;SDS011;855;48.824;9.220;2023-03-16T02:56:23;12.70;;;6.27;;
1715;SDS011;855;48.824;9.220;2023-03-16T02:58:50;11.03;;;6.03;;
1715;SDS011;855;48.824;9.220;2023-03-16T03:01:17;14.10;;;5.80;;
1715;SDS011;855;48.824;9.220;2023-03-16T03:03:44;11.33;;;5.77;;
1715;SDS011;855;48.824;9.220;2023-03-16T03:06:12;12.20;;;5.60;;
1715;SDS011;855;48.824;9.220;2023-03-16T03:08:39;14.77;;;5.80;;
1715;SDS011;855;48.824;9.220;2023-03-16T03:11:06;11.40;;;5.80;;
1715;SDS011;855;48.824;9.220;2023-03-16T03:13:33;12.10;;;6.37;;
1715;SDS011;855;48.824;9.220;2023-03-16T03:16:02;10.10;;;6.13;;
1715;SDS011;855;48.824;9.220;2023-03-16T03:18:29;12.63;;;6.43;;
1715;SDS011;855;48.824;9.220;2023-03-16T03:20:56;12.17;;;5.83;;
1715;SDS011;855;48.824;9.220;2023-03-16T03:23:24;10.13;;;5.70;;
1715;SDS011;855;48.824;9.220;2023-03-16T03:25:51;13.63;;;6.13;;
1715;SDS011;855;48.824;9.220;2023-03-16T03:28:21;13.60;;;6.37;;
1715;SDS011;855;48.824;9.220;2023-03-16T03:30:48;10.03;;;5.63;;
1715;SDS011;855;48.824;9.220;2023-03-16T03:33:16;14.27;;;6.37;;
1715;SDS011;855;48.824;9.220;2023-03-16T03:35:43;16.50;;;6.67;;
1715;SDS011;855;48.824;9.220;2023-03-16T03:38:09;17.93;;;5.80;;
1715;SDS011;855;48.824;9.220;2023-03-16T03:40:38;13.63;;;6.20;;
1715;SDS011;855;48.824;9.220;2023-03-16T03:43:04;9.33;;;5.10;;
1715;SDS011;855;48.824;9.220;2023-03-16T03:45:31;12.63;;;5.40;;
1715;SDS011;855;48.824;9.220;2023-03-16T03:47:58;14.03;;;6.10;;
1715;SDS011;855;48.824;9.220;2023-03-16T03:50:25;11.27;;;5.47;;
1715;SDS011;855;48.824;9.220;2023-03-16T03:52:52;10.77;;;5.50;;
1715;SDS011;855;48.824;9.220;2023-03-16T03:55:18;14.57;;;7.60;;
1715;SDS011;855;48.824;9.220;2023-03-16T03:57:47;12.03;;;5.33;;
1715;SDS011;855;48.824;9.220;2023-03-16T04:00:14;8.53;;;4.77;;
1715;SDS011;855;48.824;9.220;2023-03-16T04:02:44;11.10;;;5.73;;
1715;SDS011;855;48.824;9.220;2023-03-16T04:05:11;11.87;;;4.97;;
1715;SDS011;855;48.824;9.220;2023-03-16T04:07:38;12.00;;;4.87;;
1715;SDS011;855;48.824;9.220;2023-03-16T04:10:05;16.10;;;6.87;;
1715;SDS011;855;48.824;9.220;2023-03-16T04:12:33;10.47;;;5.57;;
1715;SDS011;855;48.824;9.220;2023-03-16T04:15:01;13.07;;;5.70;;
1715;SDS011;855;48.824;9.220;2023-03-16T04:17:28;8.83;;;5.00;;
1715;SDS011;855;48.824;9.220;2023-03-16T04:19:55;11.97;;;5.50;;
1715;SDS011;855;48.824;9.220;2023-03-16T04:22:22;12.40;;;5.20;;
1715;SDS011;855;48.824;9.220;2023-03-16T04:24:49;10.40;;;5.77;;
1715;SDS011;855;48.824;9.220;2023-03-16T04:27:16;11.20;;;5.77;;
1715;SDS011;855;48.824;9.220;2023-03-16T04:29:43;15.60;;;6.10;;
1715;SDS011;855;48.824;9.220;2023-03-16T04:32:11;12.43;;;5.30;;
1715;SDS011;855;48.824;9.220;2023-03-16T04:34:38;8.33;;;5.17;;
1715;SDS011;855;48.824;9.220;2023-03-16T04:37:07;8.33;;;4.73;;
1715;SDS011;855;48.824;9.220;2023-03-16T04:39:34;11.20;;;5.23;;
1715;SDS011;855;48.824;9.220;2023-03-16T04:42:02;10.83;;;5.50;;
1715;SDS011;855;48.824;9.220;2023-03-16T04:44:30;9.47;;;5.33;;
1715;SDS011;855;48.824;9.220;2023-03-16T04:46:57;14.07;;;6.87;;
1715;SDS011;855;48.824;9.220;2023-03-16T04:49:25;11.00;;;5.70;;
1715;SDS011;855;48.824;9.220;2023-03-16T04:51:52;11.83;;;5.13;;
1715;SDS011;855;48.824;9.220;2023-03-16T04:54:19;13.50;;;6.40;;
1715;SDS011;855;48.824;9.220;2023-03-16T04:56:46;13.90;;;6.37;;
1715;SDS011;855;48.824;9.220;2023-03-16T04:59:12;18.73;;;6.47;;
1715;SDS011;855;48.824;9.220;2023-03-16T05:01:39;11.87;;;5.73;;
1715;SDS011;855;48.824;9.220;2023-03-16T05:04:07;10.63;;;5.90;;
1715;SDS011;855;48.824;9.220;2023-03-16T05:06:36;11.07;;;4.93;;
1715;SDS011;855;48.824;9.220;2023-03-16T05:09:03;14.67;;;7.10;;
1715;SDS011;855;48.824;9.220;2023-03-16T05:11:30;19.47;;;7.63;;
1715;SDS011;855;48.824;9.220;2023-03-16T05:13:57;12.10;;;5.70;;
1715;SDS011;855;48.824;9.220;2023-03-16T05:16:23;14.80;;;7.23;;
1715;SDS011;855;48.824;9.220;2023-03-16T05:18:50;12.73;;;5.80;;
1715;SDS011;855;48.824;9.220;2023-03-16T05:21:17;13.40;;;6.23;;
1715;SDS011;855;48.824;9.220;2023-03-16T05:23:46;16.30;;;6.67;;
1715;SDS011;855;48.824;9.220;2023-03-16T05:26:12;19.73;;;7.20;;
1715;SDS011;855;48.824;9.220;2023-03-16T05:28:39;16.27;;;7.80;;
1715;SDS011;855;48.824;9.220;2023-03-16T05:31:06;11.80;;;5.83;;
1715;SDS011;855;48.824;9.220;2023-03-16T05:33:34;11.73;;;5.20;;
1715;SDS011;855;48.824;9.220;2023-03-16T05:36:01;14.97;;;5.37;;
1715;SDS011;855;48.824;9.220;2023-03-16T05:38:27;13.80;;;6.37;;
1715;SDS011;855;48.824;9.220;2023-03-16T05:40:57;11.93;;;5.50;;
1715;SDS011;855;48.824;9.220;2023-03-16T05:43:26;17.30;;;8.30;;
1715;SDS011;855;48.824;9.220;2023-03-16T05:45:53;109.40;;;30.00;;
1715;SDS011;855;48.824;9.220;2023-03-16T05:48:21;105.90;;;26.80;;
1715;SDS011;855;48.824;9.220;2023-03-16T05:50:49;45.23;;;12.63;;
1715;SDS011;855;48.824;9.220;2023-03-16T05:53:16;32.73;;;9.67;;
1715;SDS011;855;48.824;9.220;2023-03-16T05:55:43;27.47;;;11.33;;
1715;SDS011;855;48.824;9.220;2023-03-16T05:58:11;22.33;;;7.63;;
1715;SDS011;855;48.824;9.220;2023-03-16T06:00:38;19.30;;;9.23;;
1715;SDS011;855;48.824;9.220;2023-03-16T06:03:05;39.63;;;17.37;;
1715;SDS011;855;48.824;9.220;2023-03-16T06:05:32;49.23;;;19.10;;
1715;SDS011;855;48.824;9.220;2023-03-16T06:07:59;19.10;;;7.47;;
1715;SDS011;855;48.824;9.220;2023-03-16T06:10:26;10.30;;;5.00;;
1715;SDS011;855;48.824;9.220;2023-03-16T06:12:53;11.70;;;5.27;;
1715;SDS011;855;48.824;9.220;2023-03-16T06:15:21;12.23;;;5.97;;
1715;SDS011;855;48.824;9.220;2023-03-16T06:17:50;7.03;;;5.10;;
1715;SDS011;855;48.824;9.220;2023-03-16T06:20:17;12.17;;;5.87;;
1715;SDS011;855;48.824;9.220;2023-03-16T06:22:44;17.20;;;7.23;;
1715;SDS011;855;48.824;9.220;2023-03-16T06:25:11;11.27;;;6.20;;
1715;SDS011;855;48.824;9.220;2023-03-16T06:27:39;10.53;;;5.63;;
1715;SDS011;855;48.824;9.220;2023-03-16T06:30:07;14.57;;;6.20;;
1715;SDS011;855;48.824;9.220;2023-03-16T06:32:37;13.97;;;6.87;;
1715;SDS011;855;48.824;9.220;2023-03-16T06:35:06;11.13;;;5.17;;
1715;SDS011;855;48.824;9.220;2023-03-16T06:37:34;14.00;;;6.30;;
1715;SDS011;855;48.824;9.220;2023-03-16T06:40:01;14.90;;;5.63;;
1715;SDS011;855;48.824;9.220;2023-03-16T06:42:28;8.07;;;4.17;;
1715;SDS011;855;48.824;9.220;2023-03-16T06:44:55;10.33;;;4.53;;
1715;SDS011;855;48.824;9.220;2023-03-16T06:47:22;13.13;;;5.97;;
1715;SDS011;855;48.824;9.220;2023-03-16T06:49:51;10.70;;;5.57;;
1715;SDS011;855;48.824;9.220;2023-03-16T06:52:19;16.63;;;5.00;;
1715;SDS011;855;48.824;9.220;2023-03-16T06:54:46;13.53;;;5.80;;
1715;SDS011;855;48.824;9.220;2023-03-16T06:57:13;14.40;;;6.07;;
1715;SDS011;855;48.824;9.220;2023-03-16T06:59:40;9.07;;;3.33;;
1715;SDS011;855;48.824;9.220;2023-03-16T07:02:08;15.47;;;6.70;;
1715;SDS011;855;48.824;9.220;2023-03-16T07:04:37;11.00;;;5.37;;
1715;SDS011;855;48.824;9.220;2023-03-16T07:07:06;14.83;;;4.60;;
1715;SDS011;855;48.824;9.220;2023-03-16T07:09:33;9.47;;;4.67;;
1715;SDS011;855;48.824;9.220;2023-03-16T07:12:00;21.07;;;6.20;;
1715;SDS011;855;48.824;9.220;2023-03-16T07:14:27;17.23;;;5.37;;
1715;SDS011;855;48.824;9.220;2023-03-16T07:16:55;14.20;;;6.23;;
1715;SDS011;855;48.824;9.220;2023-03-16T07:19:22;17.47;;;7.33;;
1715;SDS011;855;48.824;9.220;2023-03-16T07:21:49;11.53;;;5.17;;
1715;SDS011;855;48.824;9.220;2023-03-16T07:24:17;12.63;;;6.90;;
1715;SDS011;855;48.824;9.220;2023-03-16T07:26:44;19.90;;;7.37;;
1715;SDS011;855;48.824;9.220;2023-03-16T07:29:11;12.03;;;5.17;;
1715;SDS011;855;48.824;9.220;2023-03-16T07:31:41;16.30;;;4.70;;
1715;SDS011;855;48.824;9.220;2023-03-16T07:34:08;12.00;;;6.23;;
1715;SDS011;855;48.824;9.220;2023-03-16T07:36:35;16.90;;;6.30;;
1715;SDS011;855;48.824;9.220;2023-03-16T07:39:02;9.70;;;4.20;;
1715;SDS011;855;48.824;9.220;2023-03-16T07:41:31;20.70;;;6.90;;
1715;SDS011;855;48.824;9.220;2023-03-16T07:43:58;11.67;;;5.10;;
1715;SDS011;855;48.824;9.220;2023-03-16T07:46:25;12.03;;;6.43;;
1715;SDS011;855;48.824;9.220;2023-03-16T07:48:52;21.60;;;8.37;;
1715;SDS011;855;48.824;9.220;2023-03-16T07:51:18;12.67;;;5.80;;
1715;SDS011;855;48.824;9.220;2023-03-16T07:53:46;8.60;;;5.17;;
1715;SDS011;855;48.824;9.220;2023-03-16T07:56:13;9.13;;;4.70;;
1715;SDS011;855;48.824;9.220;2023-03-16T07:58:41;11.03;;;6.63;;
1715;SDS011;855;48.824;9.220;2023-03-16T08:01:08;9.83;;;5.10;;
1715;SDS011;855;48.824;9.220;2023-03-16T08:03:35;15.40;;;5.73;;
1715;SDS011;855;48.824;9.220;2023-03-16T08:06:03;10.50;;;4.50;;
1715;SDS011;855;48.824;9.220;2023-03-16T08:08:30;6.97;;;4.27;;
1715;SDS011;855;48.824;9.220;2023-03-16T08:10:58;9.00;;;3.77;;
1715;SDS011;855;48.824;9.220;2023-03-16T08:13:25;7.23;;;4.50;;
1715;SDS011;855;48.824;9.220;2023-03-16T08:15:53;11.57;;;5.03;;
1715;SDS011;855;48.824;9.220;2023-03-16T08:18:22;15.73;;;5.30;;
1715;SDS011;855;48.824;9.220;2023-03-16T08:20:50;8.33;;;4.83;;
1715;SDS011;855;48.824;9.220;2023-03-16T08:23:17;10.27;;;4.60;;
1715;SDS011;855;48.824;9.220;2023-03-16T08:25:45;7.23;;;3.20;;
1715;SDS011;855;48.824;9.220;2023-03-16T08:28:13;14.47;;;5.20;;
1715;SDS011;855;48.824;9.220;2023-03-16T08:30:44;15.63;;;5.30;;
1715;SDS011;855;48.824;9.220;2023-03-16T08:33:13;12.60;;;3.53;;
1715;SDS011;855;48.824;9.220;2023-03-16T08:35:43;10.43;;;4.10;;
1715;SDS011;855;48.824;9.220;2023-03-16T08:38:11;6.27;;;3.60;;
1715;SDS011;855;48.824;9.220;2023-03-16T08:40:38;11.77;;;5.20;;
1715;SDS011;855;48.824;9.220;2023-03-16T08:43:10;5.60;;;3.10;;
1715;SDS011;855;48.824;9.220;2023-03-16T08:45:37;5.80;;;3.40;;
1715;SDS011;855;48.824;9.220;2023-03-16T08:48:04;4.47;;;2.20;;
1715;SDS011;855;48.824;9.220;2023-03-16T08:50:33;6.63;;;2.70;;
1715;SDS011;855;48.824;9.220;2023-03-16T08:52:59;5.80;;;2.50;;
1715;SDS011;855;48.824;9.220;2023-03-16T08:55:26;7.63;;;3.97;;
1715;SDS011;855;48.824;9.220;2023-03-16T08:57:53;4.50;;;2.77;;
1715;SDS011;855;48.824;9.220;2023-03-16T09:00:20;7.87;;;4.30;;
1715;SDS011;855;48.824;9.220;2023-03-16T09:02:47;3.90;;;2.70;;
1715;SDS011;855;48.824;9.220;2023-03-16T09:05:14;4.87;;;3.30;;
1715;SDS011;855;48.824;9.220;2023-03-16T09:07:43;3.80;;;1.70;;
1715;SDS011;855;48.824;9.220;2023-03-16T09:10:11;6.43;;;3.43;;
1715;SDS011;855;48.824;9.220;2023-03-16T09:12:40;4.30;;;2.60;;
1715;SDS011;855;48.824;9.220;2023-03-16T09:15:07;5.77;;;3.20;;
1715;SDS011;855;48.824;9.220;2023-03-16T09:17:36;7.67;;;3.10;;
1715;SDS011;855;48.824;9.220;2023-03-16T09:20:04;3.43;;;1.93;;
1715;SDS011;855;48.824;9.220;2023-03-16T09:22:34;8.57;;;2.93;;
1715;SDS011;855;48.824;9.220;2023-03-16T09:25:03;5.80;;;1.67;;
1715;SDS011;855;48.824;9.220;2023-03-16T09:27:32;4.47;;;2.23;;
1715;SDS011;855;48.824;9.220;2023-03-16T09:30:00;3.07;;;2.27;;
1715;SDS011;855;48.824;9.220;2023-03-16T09:32:29;6.63;;;2.17;;
1715;SDS011;855;48.824;9.220;2023-03-16T09:34:57;5.33;;;2.57;;
1715;SDS011;855;48.824;9.220;2023-03-16T09:37:24;3.13;;;2.13;;
1715;SDS011;855;48.824;9.220;2023-03-16T09:39:51;2.20;;;1.83;;
1715;SDS011;855;48.824;9.220;2023-03-16T09:42:21;2.30;;;1.77;;
1715;SDS011;855;48.824;9.220;2023-03-16T09:44:58;8.53;;;2.60;;
1715;SDS011;855;48.824;9.220;2023-03-16T09:47:31;5.73;;;2.93;;
1715;SDS011;855;48.824;9.220;2023-03-16T09:50:00;1.63;;;1.37;;
1715;SDS011;855;48.824;9.220;2023-03-16T09:52:32;3.97;;;1.93;;
1715;SDS011;855;48.824;9.220;2023-03-16T09:55:04;2.10;;;1.57;;
1715;SDS011;855;48.824;9.220;2023-03-16T09:57:38;2.77;;;2.40;;
1715;SDS011;855;48.824;9.220;2023-03-16T10:00:14;4.70;;;2.70;;
1715;SDS011;855;48.824;9.220;2023-03-16T10:02:57;5.60;;;2.30;;
1715;SDS011;855;48.824;9.220;2023-03-16T10:05:30;8.43;;;2.30;;
1715;SDS011;855;48.824;9.220;2023-03-16T10:08:02;4.30;;;2.13;;
1715;SDS011;855;48.824;9.220;2023-03-16T10:13:31;6.47;;;2.13;;
1715;SDS011;855;48.824;9.220;2023-03-16T10:16:03;3.70;;;2.50;;
1715;SDS011;855;48.824;9.220;2023-03-16T10:18:37;10.00;;;3.60;;
1715;SDS011;855;48.824;9.220;2023-03-16T10:21:10;5.50;;;2.90;;
1715;SDS011;855;48.824;9.220;2023-03-16T10:23:38;3.67;;;1.20;;
1715;SDS011;855;48.824;9.220;2023-03-16T10:26:09;2.77;;;1.63;;
1715;SDS011;855;48.824;9.220;2023-03-16T10:28:41;5.40;;;2.00;;
1715;SDS011;855;48.824;9.220;2023-03-16T10:31:09;2.70;;;2.00;;
1715;SDS011;855;48.824;9.220;2023-03-16T10:33:38;3.77;;;1.80;;
1715;SDS011;855;48.824;9.220;2023-03-16T10:36:11;2.07;;;1.53;;
1715;SDS011;855;48.824;9.220;2023-03-16T10:38:40;8.13;;;2.10;;
1715;SDS011;855;48.824;9.220;2023-03-16T10:43:56;4.40;;;2.60;;
1715;SDS011;855;48.824;9.220;2023-03-16T10:46:34;5.40;;;2.97;;
1715;SDS011;855;48.824;9.220;2023-03-16T10:49:03;2.43;;;1.43;;
1715;SDS011;855;48.824;9.220;2023-03-16T10:51:31;4.13;;;1.57;;
1715;SDS011;855;48.824;9.220;2023-03-16T10:54:03;6.53;;;2.43;;
1715;SDS011;855;48.824;9.220;2023-03-16T10:56:35;5.63;;;2.60;;
1715;SDS011;855;48.824;9.220;2023-03-16T10:59:12;2.60;;;1.73;;
1715;SDS011;855;48.824;9.220;2023-03-16T11:01:43;6.47;;;1.23;;
1715;SDS011;855;48.824;9.220;2023-03-16T11:04:14;4.43;;;2.00;;
1715;SDS011;855;48.824;9.220;2023-03-16T11:06:46;3.07;;;1.40;;
1715;SDS011;855;48.824;9.220;2023-03-16T11:09:18;5.63;;;1.67;;
1715;SDS011;855;48.824;9.220;2023-03-16T11:11:49;1.67;;;1.20;;
1715;SDS011;855;48.824;9.220;2023-03-16T11:14:19;2.27;;;1.50;;
1715;SDS011;855;48.824;9.220;2023-03-16T11:16:48;2.20;;;1.20;;
1715;SDS011;855;48.824;9.220;2023-03-16T11:19:20;3.80;;;2.57;;
1715;SDS011;855;48.824;9.220;2023-03-16T11:21:51;1.20;;;1.10;;
1715;SDS011;855;48.824;9.220;2023-03-16T11:24:22;2.50;;;1.07;;
1715;SDS011;855;48.824;9.220;2023-03-16T11:26:53;2.50;;;2.10;;
1715;SDS011;855;48.824;9.220;2023-03-16T11:29:23;2.00;;;1.00;;
1715;SDS011;855;48.824;9.220;2023-03-16T11:31:54;1.07;;;1.07;;
1715;SDS011;855;48.824;9.220;2023-03-16T11:34:26;2.97;;;1.50;;
1715;SDS011;855;48.824;9.220;2023-03-16T11:36:54;4.50;;;1.77;;
1715;SDS011;855;48.824;9.220;2023-03-16T11:39:29;2.63;;;1.57;;
1715;SDS011;855;48.824;9.220;2023-03-16T11:42:03;5.80;;;1.13;;
1715;SDS011;855;48.824;9.220;2023-03-16T11:44:43;1.73;;;1.17;;
1715;SDS011;855;48.824;9.220;2023-03-16T11:47:23;2.43;;;1.90;;
1715;SDS011;855;48.824;9.220;2023-03-16T11:50:12;1.23;;;0.97;;
1715;SDS011;855;48.824;9.220;2023-03-16T11:52:44;2.27;;;1.20;;
1715;SDS011;855;48.824;9.220;2023-03-16T11:55:20;1.13;;;0.80;;
1715;SDS011;855;48.824;9.220;2023-03-16T11:57:55;1.40;;;0.73;;
1715;SDS011;855;48.824;9.220;2023-03-16T12:00:35;1.53;;;1.13;;
1715;SDS011;855;48.824;9.220;2023-03-16T12:03:19;3.30;;;1.27;;
1715;SDS011;855;48.824;9.220;2023-03-16T12:06:00;0.80;;;0.67;;
1715;SDS011;855;48.824;9.220;2023-03-16T12:08:47;3.03;;;1.80;;
1715;SDS011;855;48.824;9.220;2023-03-16T12:11:31;0.80;;;0.73;;
1715;SDS011;855;48.824;9.220;2023-03-16T12:14:10;1.03;;;0.67;;
1715;SDS011;855;48.824;9.220;2023-03-16T12:16:44;1.03;;;1.03;;
1715;SDS011;855;48.824;9.220;2023-03-16T12:19:18;1.30;;;0.70;;
1715;SDS011;855;48.824;9.220;2023-03-16T12:21:52;1.27;;;1.20;;
1715;SDS011;855;48.824;9.220;2023-03-16T12:24:30;2.10;;;1.37;;
1715;SDS011;855;48.824;9.220;2023-03-16T12:27:04;2.77;;;1.03;;
1715;SDS011;855;48.824;9.220;2023-03-16T12:29:33;5.27;;;1.53;;
1715;SDS011;855;48.824;9.220;2023-03-16T12:32:08;3.50;;;1.53;;
1715;SDS011;855;48.824;9.220;2023-03-16T12:34:42;2.70;;;1.50;;
1715;SDS011;855;48.824;9.220;2023-03-16T12:37:18;1.13;;;1.10;;
1715;SDS011;855;48.824;9.220;2023-03-16T12:40:06;2.20;;;1.53;;
1715;SDS011;855;48.824;9.220;2023-03-16T12:42:47;4.07;;;1.70;;
1715;SDS011;855;48.824;9.220;2023-03-16T12:45:23;3.20;;;1.70;;
1715;SDS011;855;48.824;9.220;2023-03-16T12:47:59;1.80;;;1.03;;
1715;SDS011;855;48.824;9.220;2023-03-16T12:50:45;1.87;;;0.90;;
1715;SDS011;855;48.824;9.220;2023-03-16T12:53:23;1.70;;;1.37;;
1715;SDS011;855;48.824;9.220;2023-03-16T12:55:52;1.40;;;1.10;;
1715;SDS011;855;48.824;9.220;2023-03-16T12:58:21;1.17;;;1.03;;
1715;SDS011;855;48.824;9.220;2023-03-16T13:00:55;0.93;;;0.83;;
1715;SDS011;855;48.824;9.220;2023-03-16T13:03:25;0.63;;;0.53;;
1715;SDS011;855;48.824;9.220;2023-03-16T13:05:54;2.13;;;1.07;;
1715;SDS011;855;48.824;9.220;2023-03-16T13:08:25;2.20;;;1.60;;
1715;SDS011;855;48.824;9.220;2023-03-16T13:11:00;1.70;;;1.10;;
1715;SDS011;855;48.824;9.220;2023-03-16T13:13:28;1.10;;;1.00;;
1715;SDS011;855;48.824;9.220;2023-03-16T13:16:00;2.20;;;1.43;;
1715;SDS011;855;48.824;9.220;2023-03-16T13:18:36;1.80;;;0.90;;
1715;SDS011;855;48.824;9.220;2023-03-16T13:21:15;2.23;;;1.60;;
1715;SDS011;855;48.824;9.220;2023-03-16T13:23:45;2.27;;;1.60;;
1715;SDS011;855;48.824;9.220;2023-03-16T13:26:21;4.22;;;1.60;;
1715;SDS011;855;48.824;9.220;2023-03-16T13:28:56;3.47;;;1.30;;
1715;SDS011;855;48.824;9.220;2023-03-16T13:31:24;1.10;;;1.03;;
1715;SDS011;855;48.824;9.220;2023-03-16T13:33:54;2.37;;;1.70;;
1715;SDS011;855;48.824;9.220;2023-03-16T13:36:24;2.53;;;1.40;;
1715;SDS011;855;48.824;9.220;2023-03-16T13:38:56;1.30;;;0.83;;
1715;SDS011;855;48.824;9.220;2023-03-16T13:41:29;2.80;;;1.30;;
1715;SDS011;855;48.824;9.220;2023-03-16T13:43:56;2.10;;;1.13;;
1715;SDS011;855;48.824;9.220;2023-03-16T13:46:26;5.03;;;1.93;;
1715;SDS011;855;48.824;9.220;2023-03-16T13:48:57;2.33;;;1.57;;
1715;SDS011;855;48.824;9.220;2023-03-16T13:51:25;2.67;;;1.47;;
1715;SDS011;855;48.824;9.220;2023-03-16T13:53:53;2.20;;;1.30;;
1715;SDS011;855;48.824;9.220;2023-03-16T13:56:21;1.17;;;1.00;;
1715;SDS011;855;48.824;9.220;2023-03-16T13:58:51;1.30;;;1.27;;
1715;SDS011;855;48.824;9.220;2023-03-16T14:01:25;2.37;;;0.63;;
1715;SDS011;855;48.824;9.220;2023-03-16T14:03:56;3.03;;;1.90;;
1715;SDS011;855;48.824;9.220;2023-03-16T14:06:29;1.27;;;0.70;;
1715;SDS011;855;48.824;9.220;2023-03-16T14:08:59;1.93;;;0.93;;
1715;SDS011;855;48.824;9.220;2023-03-16T14:11:29;9.97;;;1.90;;
1715;SDS011;855;48.824;9.220;2023-03-16T14:13:57;1.87;;;0.90;;
1715;SDS011;855;48.824;9.220;2023-03-16T14:16:25;1.30;;;1.20;;
1715;SDS011;855;48.824;9.220;2023-03-16T14:18:56;4.93;;;1.70;;
1715;SDS011;855;48.824;9.220;2023-03-16T14:21:27;1.57;;;1.10;;
1715;SDS011;855;48.824;9.220;2023-03-16T14:23:58;3.03;;;1.30;;
1715;SDS011;855;48.824;9.220;2023-03-16T14:26:26;1.43;;;1.10;;
1715;SDS011;855;48.824;9.220;2023-03-16T14:29:05;1.10;;;0.90;;
1715;SDS011;855;48.824;9.220;2023-03-16T14:31:40;9.60;;;1.57;;
1715;SDS011;855;48.824;9.220;2023-03-16T14:34:19;2.30;;;1.57;;
1715;SDS011;855;48.824;9.220;2023-03-16T14:36:47;6.20;;;1.60;;
1715;SDS011;855;48.824;9.220;2023-03-16T14:39:15;0.90;;;0.70;;
1715;SDS011;855;48.824;9.220;2023-03-16T14:41:47;3.77;;;1.17;;
1715;SDS011;855;48.824;9.220;2023-03-16T14:44:16;2.93;;;1.53;;
1715;SDS011;855;48.824;9.220;2023-03-16T14:46:46;4.00;;;1.93;;
1715;SDS011;855;48.824;9.220;2023-03-16T14:49:17;1.93;;;1.30;;
1715;SDS011;855;48.824;9.220;2023-03-16T14:51:48;2.07;;;1.53;;
1715;SDS011;855;48.824;9.220;2023-03-16T14:54:18;2.00;;;1.03;;
1715;SDS011;855;48.824;9.220;2023-03-16T14:56:47;4.43;;;2.00;;
1715;SDS011;855;48.824;9.220;2023-03-16T14:59:15;1.53;;;1.10;;
1715;SDS011;855;48.824;9.220;2023-03-16T15:01:43;1.07;;;1.00;;
1715;SDS011;855;48.824;9.220;2023-03-16T15:04:11;4.00;;;1.43;;
1715;SDS011;855;48.824;9.220;2023-03-16T15:06:41;2.00;;;1.40;;
1715;SDS011;855;48.824;9.220;2023-03-16T15:09:10;2.13;;;1.03;;
1715;SDS011;855;48.824;9.220;2023-03-16T15:11:50;1.17;;;1.00;;
1715;SDS011;855;48.824;9.220;2023-03-16T15:14:19;3.03;;;1.67;;
1715;SDS011;855;48.824;9.220;2023-03-16T15:17:10;1.23;;;1.17;;
1715;SDS011;855;48.824;9.220;2023-03-16T15:19:37;4.87;;;2.13;;
1715;SDS011;855;48.824;9.220;2023-03-16T15:22:08;2.30;;;1.63;;
1715;SDS011;855;48.824;9.220;2023-03-16T15:24:37;5.00;;;2.20;;
1715;SDS011;855;48.824;9.220;2023-03-16T15:27:04;3.93;;;1.13;;
1715;SDS011;855;48.824;9.220;2023-03-16T15:29:43;0.97;;;0.87;;
1715;SDS011;855;48.824;9.220;2023-03-16T15:32:10;2.93;;;1.67;;
1715;SDS011;855;48.824;9.220;2023-03-16T15:34:39;2.13;;;1.20;;
1715;SDS011;855;48.824;9.220;2023-03-16T15:37:09;7.93;;;1.93;;
1715;SDS011;855;48.824;9.220;2023-03-16T15:39:38;1.80;;;1.23;;
1715;SDS011;855;48.824;9.220;2023-03-16T15:42:07;0.80;;;0.70;;
1715;SDS011;855;48.824;9.220;2023-03-16T15:44:39;2.53;;;1.07;;
1715;SDS011;855;48.824;9.220;2023-03-16T15:47:06;1.20;;;1.10;;